Time;durP1;ratioP1;P1;durP2;ratioP2;P2;SDS_P1;SDS_P2;PMS_P1;PMS_P2;Temp;Humidity;BMP_temperature;BMP_pressure;BME280_temperature;BME280_humidity;BME280_pressure;Samples;Min_cycle;Max_cycle;Signal;HPM_P1;HPM_P2
2022/11/25 00:00:21;;;;;;;22.33;15.13;;;;;;;15.30;52.23;93289.47;5082855;28;20052;-89
2022/11/25 00:02:47;;;;;;;22.98;15.38;;;;;;;15.29;51.82;93294.19;5071557;28;20475;-90
2022/11/25 00:05:12;;;;;;;20.05;15.05;;;;;;;15.29;51.94;93294.19;5083992;28;20040;-83
2022/11/25 00:07:37;;;;;;;22.05;14.90;;;;;;;15.31;52.00;93289.00;5071704;28;20044;-81
2022/11/25 00:10:04;;;;;;;20.25;14.77;;;;;;;15.30;51.88;93281.31;5069288;28;20067;-85
2022/11/25 00:12:30;;;;;;;19.73;14.27;;;;;;;15.28;52.11;93279.06;5069769;28;20033;-85
2022/11/25 00:14:57;;;;;;;17.88;12.75;;;;;;;15.30;52.16;93279.34;5063526;28;20113;-82
2022/11/25 00:17:22;;;;;;;20.85;14.90;;;;;;;15.28;51.92;93279.06;5088779;28;20059;-82
2022/11/25 00:19:49;;;;;;;20.33;14.35;;;;;;;15.30;51.97;93276.59;5079653;28;20457;-83
2022/11/25 00:22:15;;;;;;;20.00;13.50;;;;;;;15.28;51.70;93272.88;5068054;28;20060;-87
2022/11/25 00:24:40;;;;;;;19.73;13.73;;;;;;;15.29;52.05;93280.56;5077427;28;20040;-83
2022/11/25 00:27:06;;;;;;;17.80;12.88;;;;;;;15.29;51.84;93277.09;5090128;28;20075;-82
2022/11/25 00:29:31;;;;;;;15.57;13.18;;;;;;;15.28;51.90;93284.53;5071698;28;20036;-81
2022/11/25 00:31:56;;;;;;;20.63;13.57;;;;;;;15.28;51.78;93286.50;5076521;28;20043;-82
2022/11/25 00:34:22;;;;;;;17.02;13.43;;;;;;;15.28;51.82;93287.25;5083879;28;20084;-83
2022/11/25 00:36:47;;;;;;;19.02;13.00;;;;;;;15.29;52.17;93285.28;5068227;28;20105;-82
2022/11/25 00:39:14;;;;;;;16.98;13.00;;;;;;;15.29;51.97;93279.81;5076017;28;20506;-85
2022/11/25 00:44:36;;;;;;;17.40;12.10;;;;;;;15.30;51.89;93284.78;5069468;28;20127;-89
2022/11/25 00:47:03;;;;;;;18.70;13.25;;;;;;;15.28;51.90;93289.22;5051448;28;20041;-82
2022/11/25 00:49:28;;;;;;;16.00;12.25;;;;;;;15.30;51.42;93286.75;5013916;28;20045;-81
2022/11/25 00:51:54;;;;;;;16.55;12.48;;;;;;;15.28;51.82;93284.53;5029916;28;20040;-82
2022/11/25 00:54:19;;;;;;;17.92;12.73;;;;;;;15.28;51.93;93283.78;5033519;28;20616;-85
2022/11/25 00:56:45;;;;;;;19.38;12.90;;;;;;;15.31;51.77;93291.72;5017262;28;20465;-81
2022/11/25 00:59:11;;;;;;;15.45;11.25;;;;;;;15.30;51.84;93300.38;5066322;28;20040;-85
2022/11/25 01:01:37;;;;;;;16.10;12.27;;;;;;;15.27;52.07;93291.22;5066271;28;20051;-83
2022/11/25 01:04:02;;;;;;;14.93;11.05;;;;;;;15.31;51.74;93290.97;5031973;28;20033;-85
2022/11/25 01:06:28;;;;;;;17.42;12.27;;;;;;;15.29;51.89;93282.53;5065887;28;20124;-88
2022/11/25 01:08:53;;;;;;;17.38;12.77;;;;;;;15.28;51.84;93292.69;5067041;28;20044;-84
2022/11/25 01:11:20;;;;;;;15.75;11.85;;;;;;;15.29;51.75;93288.75;5030332;28;20040;-83
2022/11/25 01:13:46;;;;;;;16.48;10.90;;;;;;;15.31;51.65;93280.06;5013114;28;20033;-82
2022/11/25 01:16:14;;;;;;;16.08;11.65;;;;;;;15.28;51.70;93281.06;5063650;28;20424;-81
2022/11/25 01:18:40;;;;;;;13.43;10.30;;;;;;;15.30;51.69;93282.06;5042484;28;20044;-82
2022/11/25 01:21:12;;;;;;;15.95;11.65;;;;;;;15.26;52.05;93288.97;5079041;28;20055;-82
2022/11/25 01:23:38;;;;;;;12.10;10.02;;;;;;;15.28;51.64;93283.78;5072064;28;20064;-83
2022/11/25 01:26:04;;;;;;;13.40;11.10;;;;;;;15.27;51.82;93283.03;5087366;28;20070;-82
2022/11/25 01:28:29;;;;;;;14.07;10.30;;;;;;;15.27;51.89;93285.00;5070384;28;20482;-81
2022/11/25 01:31:00;;;;;;;16.15;10.52;;;;;;;15.26;51.67;93287.00;5079112;28;20055;-81
2022/11/25 01:33:25;;;;;;;;;;;;;;;15.29;51.99;93288.75;5051474;28;20047;-82
2022/11/25 01:35:51;;;;;;;13.37;10.17;;;;;;;15.28;51.78;93289.22;5068400;28;20298;-82
2022/11/25 01:38:16;;;;;;;13.65;10.75;;;;;;;15.25;51.87;93293.69;5068590;28;20266;-81
2022/11/25 01:40:41;;;;;;;14.15;10.63;;;;;;;15.28;51.64;93286.50;5069121;28;20608;-81
2022/11/25 01:43:12;;;;;;;17.45;11.27;;;;;;;15.24;51.93;93291.44;5069453;28;20040;-83
2022/11/25 01:45:38;;;;;;;14.65;10.20;;;;;;;15.25;51.54;93293.69;5058840;28;20036;-81
2022/11/25 01:48:19;;;;;;;12.85;9.90;;;;;;;15.24;52.02;93292.19;5068362;28;20041;-82
2022/11/25 01:50:45;;;;;;;12.43;9.50;;;;;;;15.26;51.87;93297.88;5050632;28;20037;-81
2022/11/25 01:53:10;;;;;;;13.63;10.15;;;;;;;15.26;51.86;93305.31;5066749;28;20490;-81
2022/11/25 01:55:36;;;;;;;13.23;9.77;;;;;;;15.25;51.68;93295.66;5067085;28;20488;-82
2022/11/25 01:58:11;;;;;;;14.52;10.02;;;;;;;15.23;51.89;93303.56;5050827;28;20037;-82
2022/11/25 02:00:37;;;;;;;11.80;9.02;;;;;;;15.23;52.12;93295.41;5033842;28;20040;-85
2022/11/25 02:03:03;;;;;;;13.18;9.40;;;;;;;15.27;51.63;93309.53;5034093;28;20033;-84
2022/11/25 02:05:34;;;;;;;12.75;9.38;;;;;;;15.26;51.78;93303.34;5041807;28;20044;-85
2022/11/25 02:07:59;;;;;;;12.88;9.40;;;;;;;15.25;51.63;93301.84;5026590;28;20522;-90
2022/11/25 02:10:28;;;;;;;13.18;9.32;;;;;;;15.27;51.93;93314.97;5017092;28;20037;-88
2022/11/25 02:12:53;;;;;;;12.68;9.25;;;;;;;15.26;51.71;93310.75;5050222;28;20033;-89
2022/11/25 02:15:19;;;;;;;13.38;9.98;;;;;;;15.26;51.94;93308.78;5039872;28;20040;-83
2022/11/25 02:17:45;;;;;;;13.30;9.48;;;;;;;15.27;51.45;93304.81;5055575;28;20029;-82
2022/11/25 02:20:13;;;;;;;12.65;9.90;;;;;;;15.24;52.11;93302.34;5047276;28;20036;-82
2022/11/25 02:22:51;;;;;;;11.80;8.95;;;;;;;15.24;51.71;93310.50;5053970;28;20032;-82
2022/11/25 02:25:24;;;;;;;11.45;8.57;;;;;;;15.24;51.78;93311.25;5054997;28;20048;-87
2022/11/25 02:27:53;;;;;;;10.85;8.00;;;;;;;15.23;51.74;93312.47;5049993;28;20059;-92
2022/11/25 02:30:18;;;;;;;12.27;8.75;;;;;;;15.22;51.59;93307.53;5052491;28;20063;-81
2022/11/25 02:32:45;;;;;;;11.40;8.63;;;;;;;15.23;51.60;93306.28;5053035;28;20039;-81
2022/11/25 02:35:29;;;;;;;12.38;9.05;;;;;;;15.23;51.69;93312.47;5039684;28;20182;-81
2022/11/25 02:38:00;;;;;;;12.40;8.45;;;;;;;15.24;51.63;93307.78;5050055;28;20434;-86
2022/11/25 02:40:26;;;;;;;10.30;8.30;;;;;;;15.25;51.64;93309.28;5049077;28;20419;-82
2022/11/25 02:42:52;;;;;;;11.88;8.38;;;;;;;15.25;51.39;93303.81;5067675;28;20039;-82
2022/11/25 02:45:17;;;;;;;11.20;8.38;;;;;;;15.24;51.68;93311.25;5017909;28;20032;-82
2022/11/25 02:47:43;;;;;;;11.13;8.60;;;;;;;15.23;51.67;93306.28;5033531;28;20028;-82
2022/11/25 02:50:09;;;;;;;9.15;7.50;;;;;;;15.22;51.81;93307.53;5048763;28;20047;-83
2022/11/25 02:52:34;;;;;;;9.18;6.93;;;;;;;15.23;51.53;93309.00;5068251;28;20446;-90
2022/11/25 02:54:59;;;;;;;10.30;7.63;;;;;;;15.25;51.45;93312.00;5051978;28;20028;-88
2022/11/25 02:57:25;;;;;;;9.05;7.13;;;;;;;15.26;51.12;93316.19;5052078;28;20134;-83
2022/11/25 02:59:51;;;;;;;8.52;7.38;;;;;;;15.23;51.65;93315.22;5069670;28;20032;-84
2022/11/25 03:02:16;;;;;;;10.52;7.47;;;;;;;15.20;51.89;93308.00;5068653;28;20035;-91
2022/11/25 03:04:41;;;;;;;10.32;7.45;;;;;;;15.21;51.35;93316.94;5069093;28;20036;-81
2022/11/25 03:07:07;;;;;;;10.68;7.47;;;;;;;15.21;51.69;93317.69;5083159;28;20044;-87
2022/11/25 03:09:32;;;;;;;10.77;8.20;;;;;;;15.20;51.61;93318.16;5049612;28;20033;-90
2022/11/25 03:14:41;;;;;;;9.50;6.75;;;;;;;15.22;51.85;93313.72;5052723;28;20086;-83
2022/11/25 03:17:07;;;;;;;10.52;7.28;;;;;;;15.22;51.51;93319.16;5086383;28;20048;-83
2022/11/25 03:19:32;;;;;;;8.40;6.90;;;;;;;15.22;51.53;93319.16;5048084;28;20037;-82
2022/11/25 03:22:01;;;;;;;9.65;6.82;;;;;;;15.21;51.60;93314.22;5046782;28;20043;-82
2022/11/25 03:24:27;;;;;;;9.48;6.80;;;;;;;15.21;51.65;93314.94;5049124;28;20033;-82
2022/11/25 03:26:53;;;;;;;9.57;7.13;;;;;;;15.20;51.57;93315.44;5001306;28;20548;-82
2022/11/25 03:29:19;;;;;;;10.80;7.55;;;;;;;15.19;51.78;93317.41;5066276;28;20045;-81
2022/11/25 03:31:46;;;;;;;9.38;6.75;;;;;;;15.19;51.50;93320.16;5050703;28;20086;-81
2022/11/25 03:34:11;;;;;;;8.20;6.40;;;;;;;15.22;51.42;93321.16;5065082;28;20044;-81
2022/11/25 03:36:37;;;;;;;7.82;6.18;;;;;;;15.25;51.60;93320.91;5065923;28;20129;-82
2022/11/25 03:39:02;;;;;;;9.38;6.72;;;;;;;15.22;51.48;93312.97;5065949;28;20032;-82
2022/11/25 03:41:27;;;;;;;8.60;6.97;;;;;;;15.22;51.46;93316.44;5078372;28;20047;-81
2022/11/25 03:43:53;;;;;;;8.40;6.50;;;;;;;15.23;51.43;93320.66;5087039;28;20514;-82
2022/11/25 03:46:18;;;;;;;8.48;7.05;;;;;;;15.22;51.35;93321.16;5071944;28;20044;-82
2022/11/25 03:48:44;;;;;;;8.48;6.15;;;;;;;15.25;51.28;93328.34;5065401;28;20036;-83
2022/11/25 03:51:09;;;;;;;8.55;6.57;;;;;;;15.22;51.34;93319.16;5074195;28;20044;-89
2022/11/25 03:53:35;;;;;;;7.95;5.68;;;;;;;15.25;51.17;93323.63;5086684;28;20032;-89
2022/11/25 03:56:00;;;;;;;8.88;6.20;;;;;;;15.20;51.36;93324.34;5078207;28;20461;-81
2022/11/25 03:58:26;;;;;;;7.25;5.32;;;;;;;15.22;51.34;93324.59;5067219;28;20033;-89
2022/11/25 04:00:51;;;;;;;7.15;5.57;;;;;;;15.23;51.13;93319.91;5067230;28;20867;-86
2022/11/25 04:03:16;;;;;;;9.38;6.97;;;;;;;15.20;51.35;93323.63;5066783;28;20041;-82
2022/11/25 04:05:42;;;;;;;8.32;6.20;;;;;;;15.20;51.33;93312.72;5065329;28;20479;-82
2022/11/25 04:08:07;;;;;;;9.48;6.20;;;;;;;15.20;51.30;93329.06;5065284;28;20465;-82
2022/11/25 04:10:33;;;;;;;7.97;6.20;;;;;;;15.19;51.38;93320.16;5067319;28;20083;-86
2022/11/25 04:12:58;;;;;;;7.75;5.93;;;;;;;15.22;51.56;93323.88;5065651;28;20059;-88
2022/11/25 04:15:23;;;;;;;6.57;5.07;;;;;;;15.20;51.25;93327.06;5066524;28;20052;-89
2022/11/25 04:17:49;;;;;;;6.30;4.78;;;;;;;15.18;51.19;93331.53;5067896;28;20048;-82
2022/11/25 04:20:14;;;;;;;8.50;5.75;;;;;;;15.18;51.40;93332.28;5075143;28;20044;-83
2022/11/25 04:22:40;;;;;;;8.30;5.95;;;;;;;15.18;51.23;93328.81;5065829;28;20368;-82
2022/11/25 04:25:06;;;;;;;7.00;5.10;;;;;;;15.22;51.30;93330.06;5066518;28;20036;-82
2022/11/25 04:27:31;;;;;;;6.50;4.88;;;;;;;15.19;51.28;93335.72;5064751;28;20068;-84
2022/11/25 04:29:56;;;;;;;6.60;5.10;;;;;;;15.20;51.23;93318.16;5065756;28;20036;-83
2022/11/25 04:32:22;;;;;;;7.20;5.45;;;;;;;15.20;51.08;93331.78;5082689;28;20044;-81
2022/11/25 04:34:48;;;;;;;7.35;5.25;;;;;;;15.19;51.13;93328.31;5085360;28;20041;-82
2022/11/25 04:37:14;;;;;;;8.43;5.47;;;;;;;15.17;51.38;93321.88;5071353;28;20037;-85
2022/11/25 04:39:39;;;;;;;7.22;5.43;;;;;;;15.18;51.28;93324.09;5070386;28;20040;-85
2022/11/25 04:45:11;;;;;;;6.55;4.90;;;;;;;15.21;50.73;93320.41;5039591;28;20052;-81
2022/11/25 04:47:36;;;;;;;6.10;4.70;;;;;;;15.18;51.16;93328.81;4990880;28;20619;-82
2022/11/25 04:50:03;;;;;;;7.70;5.55;;;;;;;15.17;51.45;93338.19;4975473;28;20042;-82
2022/11/25 04:52:28;;;;;;;7.60;4.57;;;;;;;15.18;51.34;93335.00;4975023;28;20608;-83
2022/11/25 04:54:54;;;;;;;6.95;5.40;;;;;;;15.16;51.23;93342.16;4991329;28;20053;-81
2022/11/25 04:57:19;;;;;;;5.35;4.28;;;;;;;15.16;51.16;93344.88;5005333;28;20050;-83
2022/11/25 04:59:45;;;;;;;6.05;4.60;;;;;;;15.19;51.30;93343.91;4994699;28;20036;-88
2022/11/25 05:02:18;;;;;;;6.43;5.25;;;;;;;15.18;50.98;93343.16;5009817;28;20045;-82
2022/11/25 05:04:44;;;;;;;6.75;4.53;;;;;;;15.20;51.20;93342.66;5010130;28;20374;-82
2022/11/25 05:07:10;;;;;;;6.93;5.68;;;;;;;15.20;51.11;93337.97;5008947;28;20530;-82
2022/11/25 05:09:35;;;;;;;8.68;5.07;;;;;;;15.21;51.08;93336.72;5011153;28;20045;-81
2022/11/25 05:12:01;;;;;;;8.82;5.50;;;;;;;15.21;51.05;93341.44;4998417;28;20479;-82
2022/11/25 05:14:26;;;;;;;5.72;4.63;;;;;;;15.19;51.22;93341.94;5006504;28;20391;-81
2022/11/25 05:16:51;;;;;;;6.88;4.82;;;;;;;15.22;51.14;93349.13;5016884;28;20582;-81
2022/11/25 05:19:17;;;;;;;12.07;6.13;;;;;;;15.21;50.92;93336.00;5024874;28;20044;-82
2022/11/25 05:21:42;;;;;;;7.72;5.45;;;;;;;15.21;51.35;93347.63;5058556;28;20044;-89
2022/11/25 05:24:08;;;;;;;8.40;4.70;;;;;;;15.20;51.19;93346.13;5084672;28;20155;-81
2022/11/25 05:26:33;;;;;;;5.07;4.07;;;;;;;15.23;51.02;93339.72;5074652;28;20444;-81
2022/11/25 05:28:59;;;;;;;9.10;4.72;;;;;;;15.21;51.07;93344.16;5076741;28;20700;-81
2022/11/25 05:31:24;;;;;;;8.45;4.93;;;;;;;15.25;51.02;93341.94;5068058;28;20066;-87
2022/11/25 05:33:49;;;;;;;11.18;5.65;;;;;;;15.25;51.24;93353.59;5067935;28;20033;-85
2022/11/25 05:36:15;;;;;;;9.45;4.97;;;;;;;15.24;50.57;93346.66;5073210;28;20032;-89
2022/11/25 05:38:40;;;;;;;9.98;5.40;;;;;;;15.20;50.31;93348.88;5081563;28;20035;-81
2022/11/25 05:41:06;;;;;;;10.63;5.28;;;;;;;15.26;50.95;93344.19;5070579;28;20055;-85
2022/11/25 05:43:31;;;;;;;9.80;5.22;;;;;;;15.18;51.03;93343.16;5088512;28;20040;-80
2022/11/25 05:45:57;;;;;;;9.82;5.95;;;;;;;15.26;51.17;93338.72;5072581;28;20143;-85
2022/11/25 05:48:24;;;;;;;47.63;35.80;;;;;;;15.28;51.70;93340.97;5066629;28;20102;-84
2022/11/25 05:51:09;;;;;;;27.05;7.25;;;;;;;15.30;50.63;93347.41;5058137;28;20041;-82
2022/11/25 05:53:35;;;;;;;17.05;8.60;;;;;;;15.31;50.58;93337.25;5068010;28;20036;-82
2022/11/25 05:56:02;;;;;;;10.27;5.72;;;;;;;15.34;50.48;93339.00;5067730;28;20036;-83
2022/11/25 05:58:28;;;;;;;24.67;9.15;;;;;;;15.32;50.60;93336.78;5069138;28;20772;-83
2022/11/25 06:00:54;;;;;;;30.35;8.63;;;;;;;15.29;50.63;93334.28;5033767;28;20036;-88
2022/11/25 06:03:24;;;;;;;18.10;7.03;;;;;;;15.31;50.78;93340.72;5059745;28;20125;-82
2022/11/25 06:05:49;;;;;;;25.38;7.65;;;;;;;15.31;50.23;93343.47;5034543;28;20108;-84
2022/11/25 06:08:15;;;;;;;22.63;7.75;;;;;;;15.29;50.21;93332.31;5034014;28;20040;-83
2022/11/25 06:10:40;;;;;;;27.85;7.57;;;;;;;15.31;50.35;93346.19;5068554;28;20093;-84
2022/11/25 06:13:07;;;;;;;15.32;7.20;;;;;;;15.30;50.53;93346.66;5050542;28;20656;-88
2022/11/25 06:15:32;;;;;;;19.48;6.38;;;;;;;15.30;50.26;93347.41;5034634;28;20063;-83
2022/11/25 06:17:59;;;;;;;31.70;15.05;;;;;;;15.32;50.24;93347.66;5050539;28;20850;-81
2022/11/25 06:20:25;;;;;;;98.05;53.10;;;;;;;15.31;50.35;93345.44;5078901;28;20040;-82
2022/11/25 06:22:51;;;;;;;89.93;48.88;;;;;;;15.34;50.55;93344.47;5051484;28;20090;-88
2022/11/25 06:25:17;;;;;;;82.40;44.15;;;;;;;15.32;50.39;93355.84;5045991;28;20299;-84
2022/11/25 06:27:43;;;;;;;78.90;39.83;;;;;;;15.32;50.49;93349.66;5028634;28;20123;-84
2022/11/25 06:30:11;;;;;;;157.05;77.03;;;;;;;15.33;50.49;93353.88;5057419;28;20058;-83
2022/11/25 06:32:37;;;;;;;82.40;42.65;;;;;;;15.35;50.44;93346.69;5050532;28;20068;-85
2022/11/25 06:35:02;;;;;;;46.50;22.35;;;;;;;15.30;49.67;93357.56;5048815;28;20036;-85
2022/11/25 06:37:28;;;;;;;80.97;43.40;;;;;;;15.29;49.52;93356.06;5047401;28;20067;-84
2022/11/25 06:39:53;;;;;;;131.30;69.10;;;;;;;15.29;49.89;93347.91;5047588;28;20044;-82
2022/11/25 06:42:29;;;;;;;105.68;52.28;;;;;;;15.27;50.20;93364.72;5049098;28;20223;-94
2022/11/25 06:45:18;;;;;;;103.88;55.10;;;;;;;15.28;50.39;93360.78;5029161;28;20437;-93
2022/11/25 06:47:44;;;;;;;103.07;51.92;;;;;;;15.29;49.79;93365.00;5060486;28;20127;-83
2022/11/25 06:50:10;;;;;;;128.75;63.90;;;;;;;15.32;49.39;93363.25;5061734;28;20250;-84
2022/11/25 06:52:36;;;;;;;122.75;70.15;;;;;;;15.28;49.82;93360.78;5059261;28;20055;-84
2022/11/25 06:55:02;;;;;;;135.07;67.72;;;;;;;15.30;50.04;93371.19;5067984;28;20475;-88
2022/11/25 06:57:29;;;;;;;121.47;63.47;;;;;;;15.30;49.99;93360.28;5056718;28;20096;-83
2022/11/25 06:59:54;;;;;;;109.65;59.85;;;;;;;15.32;49.73;93371.44;5046874;28;20060;-84
2022/11/25 07:02:20;;;;;;;110.20;59.65;;;;;;;15.32;49.62;93374.91;5048307;28;20033;-81
2022/11/25 07:04:45;;;;;;;111.35;54.33;;;;;;;15.37;49.79;93376.16;5014090;28;20033;-91
2022/11/25 07:07:11;;;;;;;123.50;60.53;;;;;;;15.40;50.03;93378.63;5045801;28;20059;-79
2022/11/25 07:09:36;;;;;;;350.38;295.63;;;;;;;15.42;50.67;93378.88;5056390;28;20090;-83
2022/11/25 07:12:02;;;;;;;108.75;55.42;;;;;;;15.44;49.76;93365.50;5057207;28;20109;-80
2022/11/25 07:14:27;;;;;;;91.07;53.50;;;;;;;15.45;49.89;93379.88;5050277;28;20437;-85
2022/11/25 07:16:53;;;;;;;99.93;51.70;;;;;;;15.48;49.67;93383.59;5068441;28;20402;-83
2022/11/25 07:19:18;;;;;;;88.90;48.42;;;;;;;15.52;49.84;93382.13;5053116;28;20805;-82
2022/11/25 07:21:44;;;;;;;97.53;52.28;;;;;;;15.50;49.51;93379.16;5047524;28;20121;-81
2022/11/25 07:24:13;;;;;;;87.93;47.70;;;;;;;15.51;49.55;93380.63;5012782;28;20055;-82
2022/11/25 07:26:39;;;;;;;72.63;42.67;;;;;;;15.51;49.40;93371.72;5029728;28;20432;-82
2022/11/25 07:29:06;;;;;;;70.40;40.28;;;;;;;15.51;49.62;93380.63;5029567;28;20037;-83
2022/11/25 07:31:36;;;;;;;82.85;43.15;;;;;;;15.55;49.82;93383.13;5043028;28;20441;-82
2022/11/25 07:34:04;;;;;;;119.47;46.97;;;;;;;15.53;49.66;93382.88;5036404;28;20040;-81
2022/11/25 07:36:30;;;;;;;151.30;49.38;;;;;;;15.53;49.41;93386.34;5030396;28;20529;-81
2022/11/25 07:38:56;;;;;;;110.68;51.80;;;;;;;15.49;50.00;93387.81;5067526;28;20110;-83
2022/11/25 07:41:22;;;;;;;80.78;39.25;;;;;;;15.49;48.81;93383.09;5050301;28;20521;-81
2022/11/25 07:43:50;;;;;;;86.53;39.78;;;;;;;15.42;49.07;93386.31;5049885;28;20058;-80
2022/11/25 07:46:18;;;;;;;142.98;50.80;;;;;;;15.42;49.00;93389.03;5031571;28;20464;-82
2022/11/25 07:48:44;;;;;;;103.97;46.33;;;;;;;15.43;49.38;93383.09;5046681;28;20071;-81
2022/11/25 07:51:20;;;;;;;113.93;48.17;;;;;;;15.44;49.49;93389.28;5047826;28;20402;-83
2022/11/25 07:53:45;;;;;;;201.45;74.55;;;;;;;15.45;49.33;93393.50;5047503;28;20033;-81
2022/11/25 07:56:11;;;;;;;172.07;64.18;;;;;;;15.50;49.49;93400.94;5047454;28;20037;-80
2022/11/25 07:58:36;;;;;;;149.77;61.28;;;;;;;15.49;49.50;93395.97;5030984;28;20549;-85
2022/11/25 08:01:03;;;;;;;154.25;68.05;;;;;;;15.53;49.62;93391.03;5029482;28;20044;-79
2022/11/25 08:03:28;;;;;;;137.02;61.35;;;;;;;15.52;49.48;93392.28;5046993;28;20051;-80
2022/11/25 08:05:53;;;;;;;164.60;67.10;;;;;;;15.49;49.33;93393.25;5044612;28;20037;-83
2022/11/25 08:08:19;;;;;;;135.10;54.42;;;;;;;15.50;49.55;93395.50;5045918;28;20060;-82
2022/11/25 08:10:45;;;;;;;115.38;50.90;;;;;;;15.50;49.49;93394.75;5046639;28;20055;-81
2022/11/25 08:13:10;;;;;;;129.02;55.17;;;;;;;15.53;49.46;93396.50;5043951;28;20058;-84
2022/11/25 08:15:35;;;;;;;87.78;47.15;;;;;;;15.52;49.62;93403.94;5016592;28;20417;-80
2022/11/25 08:18:01;;;;;;;107.20;46.22;;;;;;;15.51;49.38;93407.13;5024935;28;20028;-80
2022/11/25 08:20:27;;;;;;;110.13;48.83;;;;;;;15.50;49.56;93409.13;5033320;28;20033;-85
2022/11/25 08:22:53;;;;;;;100.72;40.70;;;;;;;15.50;49.28;93400.19;5024466;28;20102;-81
2022/11/25 08:25:18;;;;;;;117.80;46.63;;;;;;;15.53;49.70;93404.66;5016805;28;20511;-83
2022/11/25 08:27:44;;;;;;;107.90;47.60;;;;;;;15.54;49.69;93404.19;5037384;28;20274;-85
2022/11/25 08:30:09;;;;;;;113.00;45.15;;;;;;;15.54;49.48;93401.47;5036206;28;20432;-83
2022/11/25 08:32:38;;;;;;;107.00;41.55;;;;;;;15.51;49.63;93396.97;5050220;28;20568;-87
2022/11/25 08:35:04;;;;;;;99.05;44.17;;;;;;;15.51;49.83;93394.25;5034278;28;20040;-85
2022/11/25 08:37:30;;;;;;;104.60;43.40;;;;;;;15.50;49.58;93395.50;5040609;28;20029;-83
2022/11/25 08:39:55;;;;;;;110.18;45.10;;;;;;;15.53;49.70;93404.66;5054126;28;20056;-85
2022/11/25 08:42:21;;;;;;;111.72;40.75;;;;;;;15.51;49.70;93398.97;5067099;28;20492;-83
2022/11/25 08:44:51;;;;;;;108.93;45.65;;;;;;;15.54;49.65;93406.16;5068155;28;20040;-84
2022/11/25 08:47:17;;;;;;;112.57;50.00;;;;;;;15.55;49.47;93402.19;5037873;28;20391;-83
2022/11/25 08:49:43;;;;;;;121.57;53.72;;;;;;;15.53;49.77;93396.50;5037365;28;20049;-88
2022/11/25 08:52:09;;;;;;;86.55;46.13;;;;;;;15.53;49.89;93404.66;5067354;28;20093;-83
2022/11/25 08:54:35;;;;;;;90.97;45.08;;;;;;;15.54;49.63;93398.72;5052854;28;20044;-90
2022/11/25 08:57:00;;;;;;;111.15;48.90;;;;;;;15.57;49.68;93400.50;5047423;28;20079;-85
2022/11/25 08:59:26;;;;;;;81.68;42.20;;;;;;;15.55;49.94;93404.94;5022326;28;20040;-86
2022/11/25 09:01:52;;;;;;;89.75;43.97;;;;;;;15.56;49.62;93395.53;5051885;28;20116;-85
2022/11/25 09:04:17;;;;;;;158.25;48.22;;;;;;;15.56;49.66;93392.81;5032736;28;20048;-89
2022/11/25 09:06:43;;;;;;;134.15;46.28;;;;;;;15.55;49.89;93394.78;5051842;28;20055;-85
2022/11/25 09:09:08;;;;;;;115.30;52.92;;;;;;;15.58;49.99;93407.44;5068513;28;20342;-90
2022/11/25 09:11:33;;;;;;;109.60;46.90;;;;;;;15.61;49.58;93397.50;5035454;28;20033;-86
2022/11/25 09:13:59;;;;;;;113.45;51.97;;;;;;;15.59;49.67;93403.44;5058032;28;20045;-82
2022/11/25 09:16:24;;;;;;;92.38;47.88;;;;;;;15.57;49.59;93400.50;5064406;28;20041;-81
2022/11/25 09:18:50;;;;;;;77.25;44.05;;;;;;;15.57;50.00;93403.22;5051362;28;20045;-82
2022/11/25 09:21:16;;;;;;;90.80;44.25;;;;;;;15.58;50.03;93393.81;5053428;28;20067;-82
2022/11/25 09:23:41;;;;;;;101.50;49.30;;;;;;;15.61;49.58;93392.81;5033258;28;20032;-88
2022/11/25 09:26:07;;;;;;;96.15;45.38;;;;;;;15.60;49.80;93391.31;5056562;28;20089;-85
2022/11/25 09:28:32;;;;;;;86.82;46.92;;;;;;;15.56;50.05;93390.84;5036697;28;20066;-84
2022/11/25 09:31:05;;;;;;;87.75;41.28;;;;;;;15.58;50.03;93402.00;5038724;28;20077;-85
2022/11/25 09:33:31;;;;;;;74.32;42.50;;;;;;;15.62;49.60;93399.00;5029763;28;20058;-84
2022/11/25 09:35:59;;;;;;;71.30;39.45;;;;;;;15.60;49.88;93390.56;5037319;28;20107;-91
2022/11/25 09:38:24;;;;;;;63.13;36.83;;;;;;;15.62;49.87;93394.31;5032586;28;20183;-87
2022/11/25 09:40:54;;;;;;;61.95;34.70;;;;;;;15.64;49.84;93380.19;5036527;28;20067;-84
2022/11/25 09:46:44;;;;;;;81.43;40.33;;;;;;;15.58;49.88;93388.38;5061984;28;20064;-88
2022/11/25 09:49:19;;;;;;;191.52;58.75;;;;;;;15.59;49.89;93398.00;5053298;28;20130;-86
2022/11/25 09:51:56;;;;;;;40.45;21.20;;;;;;;15.51;47.43;93398.97;5036456;28;20469;-88
2022/11/25 09:54:26;;;;;;;35.28;18.52;;;;;;;15.50;47.34;93400.19;5049143;28;20037;-85
2022/11/25 09:56:54;;;;;;;67.20;27.73;;;;;;;15.51;47.76;93402.44;5050819;28;20129;-84
2022/11/25 09:59:33;;;;;;;54.55;24.58;;;;;;;15.51;48.21;93416.06;5048542;28;20040;-90
2022/11/25 10:02:00;;;;;;;56.40;27.42;;;;;;;15.54;48.71;93408.88;5052422;28;20048;-88
2022/11/25 10:04:33;;;;;;;80.68;36.38;;;;;;;15.52;49.03;93401.19;5048459;28;20048;-85
2022/11/25 10:07:02;;;;;;;89.68;44.65;;;;;;;15.55;48.74;93413.09;5033859;28;20045;-85
2022/11/25 10:09:30;;;;;;;163.88;88.22;;;;;;;15.53;49.00;93416.31;5029311;28;20308;-85
2022/11/25 10:12:27;;;;;;;165.13;95.07;;;;;;;15.54;49.49;93406.91;5015788;28;20495;-91
2022/11/25 10:14:55;;;;;;;195.13;111.72;;;;;;;15.57;49.26;93418.81;5030835;28;20049;-83
2022/11/25 10:17:44;;;;;;;71.53;42.53;;;;;;;15.53;49.59;93416.31;5030971;28;20276;-84
2022/11/25 10:20:12;;;;;;;85.13;43.13;;;;;;;15.53;49.08;93416.31;5047545;28;20148;-87
2022/11/25 10:22:42;;;;;;;108.70;58.13;;;;;;;15.56;49.24;93420.81;5055618;28;20036;-85
2022/11/25 10:25:15;;;;;;;148.10;83.22;;;;;;;15.56;49.30;93418.09;5044275;28;20036;-87
2022/11/25 10:27:43;;;;;;;129.13;70.97;;;;;;;15.58;49.57;93412.16;5054200;28;20093;-87
2022/11/25 10:30:24;;;;;;;168.45;79.40;;;;;;;15.56;49.41;93415.38;5052332;28;20044;-85
2022/11/25 10:33:02;;;;;;;134.80;81.30;;;;;;;15.55;49.61;93422.00;5038185;28;20066;-86
2022/11/25 10:35:33;;;;;;;167.00;94.60;;;;;;;15.58;49.92;93418.34;5049314;28;20071;-85
2022/11/25 10:38:01;;;;;;;152.82;79.15;;;;;;;15.63;49.78;93414.13;5070308;28;20741;-89
2022/11/25 10:40:26;;;;;;;185.38;104.40;;;;;;;15.58;49.57;93410.16;5063887;28;20036;-86
2022/11/25 10:42:52;;;;;;;186.90;102.13;;;;;;;15.60;49.80;93418.56;5060134;28;20166;-88
2022/11/25 10:45:17;;;;;;;176.95;96.90;;;;;;;15.66;49.86;93410.41;5050680;28;20037;-89
2022/11/25 10:47:42;;;;;;;190.13;105.68;;;;;;;15.65;49.52;93408.91;5066409;28;20036;-84
2022/11/25 10:50:26;;;;;;;248.40;152.55;;;;;;;15.65;49.82;93414.38;5067648;28;20057;-85
2022/11/25 10:52:58;;;;;;;191.73;112.97;;;;;;;15.67;49.45;93414.63;5071860;28;20036;-86
2022/11/25 10:55:25;;;;;;;180.27;98.63;;;;;;;15.69;49.70;93410.19;5066183;28;20414;-86
2022/11/25 10:57:51;;;;;;;174.57;102.45;;;;;;;15.62;49.69;93409.91;5064723;28;20596;-85
2022/11/25 11:00:35;;;;;;;193.75;114.72;;;;;;;15.62;50.05;93412.63;5049618;28;20040;-89
2022/11/25 11:03:22;;;;;;;172.25;105.97;;;;;;;15.62;49.82;93407.91;5033548;28;20036;-87
2022/11/25 11:05:49;;;;;;;180.02;106.20;;;;;;;15.63;49.85;93408.66;5065067;28;20094;-84
2022/11/25 11:08:20;;;;;;;179.13;105.70;;;;;;;15.62;49.46;93407.91;5065003;28;20089;-85
2022/11/25 11:10:46;;;;;;;175.48;106.55;;;;;;;15.64;49.60;93404.72;5053209;28;20119;-90
2022/11/25 11:13:23;;;;;;;174.63;99.38;;;;;;;15.66;49.66;93399.50;5067925;28;20118;-85
2022/11/25 11:15:48;;;;;;;168.52;102.85;;;;;;;15.66;49.78;93404.97;5069740;28;20056;-85
2022/11/25 11:18:14;;;;;;;150.70;95.25;;;;;;;15.65;49.93;93400.75;5064822;28;20063;-85
2022/11/25 11:20:44;;;;;;;144.98;92.05;;;;;;;15.66;49.67;93405.72;5065786;28;20036;-92
2022/11/25 11:23:12;;;;;;;;;;;;;;;15.65;49.81;93401.50;5066957;28;20037;-85
2022/11/25 11:25:39;;;;;;;149.77;89.18;;;;;;;15.64;49.50;93412.88;5053681;28;20437;-85
2022/11/25 11:28:23;;;;;;;140.00;83.18;;;;;;;15.62;49.83;93399.75;5065127;28;20043;-85
2022/11/25 11:30:57;;;;;;;130.68;83.35;;;;;;;15.63;50.09;93390.34;5073124;28;20040;-85